• Join FlightAware (Why Join?)
  • Login
  • US Flag 
06:06AM EDT


 

Airport Tracker/Info


-or-


 

Live Flight TrackerFlight Track Log ✈ N342QS ✈ 29-Apr-2012 ✈ KEWR - KCHO

Flight Track Log - Related Links

Times and Time Zones

All times are in EDT time to prevent confusion due to time zone crossing. See the N342QS flight status page for this flight to view local times or setup timezone preferences in your user account.

Time Position Orientation Groundspeed Altitude Reporting Facility
EDT Latitude Longitude Course Direction KTS MPH feet Rate Location/Type
07:17PM 40.7167 -74.1500 251° West 219 252 1,700  Level New York TRACON
07:22PM 40.6094 -74.5544 238° Southwest 322 371 21,800 3,600 Climbing New York Center
07:23PM 40.5556 -74.6661 233° Southwest 344 396 24,300 2,400 Climbing New York Center
07:24PM 40.4958 -74.7719 231° Southwest 380 437 26,600 2,280 Climbing New York Center
07:25PM 40.4253 -74.8850 232° Southwest 402 463 28,800 1,680 Climbing New York Center
07:26PM 40.3478 -75.0167 232° Southwest 418 481 30,000 540 Climbing New York Center
07:27PM 40.2811 -75.1294 233° Southwest 437 503 30,000  Level New York Center
07:28PM 40.2097 -75.2528 231° Southwest 442 509 30,000  Level New York Center
07:29PM 40.1342 -75.3728 228° Southwest 437 503 30,000  Level New York Center
07:30PM 40.0481 -75.4972 227° Southwest 448 516 30,000  Level New York Center
07:31PM 39.9619 -75.6161 229° Southwest 454 522 30,000 -540 Level New York Center
07:32PM 39.8819 -75.7350 229° Southwest 454 522 29,000 -1,500 Descending New York Center
07:33PM 39.7950 -75.8667 231° Southwest 442 509 27,000 -1,860 Descending New York Center
07:35PM 39.6458 -76.1061 231° Southwest 413 475 23,200 -1,620 Descending Washington Center
07:36PM 39.5744 -76.2189 231° Southwest 413 475 22,000 -600 Descending Washington Center
07:37PM 39.5031 -76.3311 229° Southwest 413 475 22,000  Level Washington Center
07:38PM 39.4294 -76.4406 232° Southwest 407 468 22,000  Level Washington Center
07:39PM 39.3514 -76.5686 228° Southwest 407 468 22,000  Level Washington Center
07:40PM 39.2833 -76.6667 229° Southwest 392 451 22,000  Level Potomac TRACON
07:41PM 39.2167 -76.7667 234° Southwest 392 451 22,000  Level Potomac TRACON
07:42PM 39.1500 -76.8833 232° Southwest 385 443 22,000  Level Potomac TRACON
07:43PM 39.0781 -77.0033 231° Southwest 392 451 22,000 -600 Level Washington Center
07:44PM 39.0122 -77.1089 232° Southwest 392 451 20,800 -1,500 Descending Washington Center
07:45PM 38.9667 -77.1833 229° Southwest 388 447 19,400 -1,620 Descending Potomac TRACON
07:46PM 38.9000 -77.2833 234° Southwest 361 415 18,000 -1,020 Descending Potomac TRACON
07:47PM 38.8333 -77.4000 229° Southwest 361 415 17,400 -1,320 Descending Potomac TRACON
07:48PM 38.7667 -77.5000 224° Southwest 349 402 15,300 -1,200 Descending Potomac TRACON
07:49PM 38.7000 -77.5833 230° Southwest 363 418 15,000 -900 Descending Potomac TRACON
07:50PM 38.6333 -77.6833 237° Southwest 343 395 13,700 -1,560 Descending Potomac TRACON
07:51PM 38.5833 -77.7833 224° Southwest 342 394 11,900 -1,800 Descending Potomac TRACON
07:52PM 38.5167 -77.8667 233° Southwest 337 388 10,100 -1,500 Descending Potomac TRACON
07:53PM 38.4667 -77.9500 233° Southwest 274 315 9,000 -600 Descending Potomac TRACON
07:54PM 38.4167 -78.0333 226° Southwest 278 320 9,000 -540 Level Potomac TRACON
07:55PM 38.3667 -78.1000 243° Southwest 266 306 8,000 -1,500 Descending Potomac TRACON
07:56PM 38.3333 -78.1833 226° Southwest 303 349 6,000 -2,400 Descending Potomac TRACON
07:57PM 38.2833 -78.2500 226° Southwest 261 300 3,200 -1,620 Descending Potomac TRACON
07:58PM 38.2333 -78.3167 252° West 217 250 2,600 -540 Descending Potomac TRACON
07:59PM 38.2167 -78.3833 238° Southwest 176 203 2,100 -420 Descending Potomac TRACON
08:00PM 38.2000 -78.4167 201° Southwest 130 150 1,900 -480 Descending Potomac TRACON
08:01PM 38.1667 -78.4333 149° Southeast 119 137 1,300 -600 Descending Potomac TRACON
08:09PM 37.5495 -77.9745 330° Northwest  Level FlightAware Approximate
08:10PM 37.6310 -78.0346 330° Northwest  Level FlightAware Approximate
08:11PM 37.7124 -78.0948 330° Northwest  Level FlightAware Approximate
08:12PM 37.7939 -78.1551 330° Northwest  Level FlightAware Approximate
08:13PM 37.8753 -78.2156 330° Northwest  Level FlightAware Approximate
08:14PM 37.9566 -78.2762 330° Northwest  Level FlightAware Approximate
08:15PM 38.0379 -78.3369 330° Northwest  Level FlightAware Approximate